X  Luk Metar data     EKYT Aalborg Airport
Temperatur
5°C Temperatur
1°C Dugpunkt
76% Fugtighed



Vind
3 M/S
6 MPT
10 KM/T
5 KNOB



20°
NNØ
Nuværende forhold

Mest spredte skyer Mest spredte skyer
Tryk 1028.92 (hPa) - 30.38 (inHg)
Sigt 6.2 (mil) - 10 (km)
Lufthavn
Lufthavnskode EKYT

Lokation: Aalborg Airport
Afstand: 54 (km)

Metar:
EKYT 162320Z AUTO 02005KT 9999 SCT075/// BKN090/// 05/01 Q1029

Tid: 17-04-2021 01:20 CEST